createdAt,value
2023-06-29T00:03:36.607Z,23.87
2023-06-29T00:08:39.400Z,23.86
2023-06-29T00:13:43.674Z,23.82
2023-06-29T00:18:46.976Z,23.78
2023-06-29T00:23:49.879Z,23.77
2023-06-29T00:28:54.129Z,23.75
2023-06-29T00:33:56.929Z,23.72
2023-06-29T00:39:01.265Z,23.70
2023-06-29T00:44:05.965Z,23.67
2023-06-29T00:49:08.924Z,23.64
2023-06-29T00:54:12.008Z,23.61
2023-06-29T00:59:16.261Z,23.60
2023-06-29T01:04:26.047Z,23.56
2023-06-29T01:09:28.814Z,23.52
2023-06-29T01:14:33.414Z,23.51
2023-06-29T01:19:36.291Z,23.46
2023-06-29T01:24:41.003Z,23.44
2023-06-29T01:29:43.982Z,23.42
2023-06-29T01:34:46.821Z,23.39
2023-06-29T01:39:53.807Z,23.37
2023-06-29T01:44:56.622Z,23.34
2023-06-29T01:50:00.492Z,23.32
2023-06-29T01:55:04.936Z,23.29
2023-06-29T02:00:09.966Z,23.28
2023-06-29T02:05:20.314Z,23.26
2023-06-29T02:10:24.546Z,23.25
2023-06-29T02:15:27.359Z,23.24
2023-06-29T02:20:30.258Z,23.21
2023-06-29T02:25:34.540Z,23.21
2023-06-29T02:30:37.360Z,23.19
2023-06-29T02:35:40.263Z,23.17
2023-06-29T02:40:45.744Z,23.14
2023-06-29T02:45:49.111Z,23.14
2023-06-29T02:50:52.034Z,23.12
2023-06-29T02:55:56.284Z,23.07
2023-06-29T03:00:59.251Z,23.06
2023-06-29T03:06:03.761Z,23.03
2023-06-29T03:11:08.013Z,23.02
2023-06-29T03:16:11.546Z,23.00
2023-06-29T03:21:18.610Z,22.96
2023-06-29T03:26:23.052Z,22.97
2023-06-29T03:31:26.003Z,22.93
2023-06-29T03:36:28.909Z,22.95
2023-06-29T03:41:33.077Z,22.95
2023-06-29T03:46:37.031Z,22.94
2023-06-29T03:51:39.911Z,22.15
2023-06-29T03:56:44.080Z,21.00
2023-06-29T04:01:46.990Z,20.45
2023-06-29T04:06:49.956Z,20.36
2023-06-29T04:11:54.194Z,20.38
2023-06-29T04:16:57.081Z,20.35
2023-06-29T04:22:00.055Z,20.00
2023-06-29T04:27:04.389Z,20.07
2023-06-29T04:32:07.557Z,19.53
2023-06-29T04:37:11.266Z,19.65
2023-06-29T04:42:18.183Z,19.44
2023-06-29T04:47:21.098Z,19.58
2023-06-29T04:52:23.982Z,19.50
2023-06-29T04:57:29.755Z,19.52
2023-06-29T05:02:32.880Z,19.49
2023-06-29T05:07:36.907Z,19.48
2023-06-29T05:12:41.187Z,19.31
2023-06-29T05:17:44.565Z,19.36
2023-06-29T05:22:47.491Z,19.34
2023-06-29T05:27:51.815Z,19.50
2023-06-29T05:32:54.779Z,19.42
2023-06-29T05:37:57.773Z,19.60
2023-06-29T05:43:02.170Z,19.47
2023-06-29T05:48:05.574Z,19.57
2023-06-29T05:53:08.793Z,19.56
2023-06-29T05:58:13.007Z,19.58
2023-06-29T06:03:16.629Z,19.62
2023-06-29T06:08:19.625Z,19.74
2023-06-29T06:13:23.884Z,19.91
2023-06-29T06:18:27.249Z,19.84
2023-06-29T06:23:31.883Z,19.84
2023-06-29T06:28:38.339Z,19.98
2023-06-29T06:33:41.397Z,20.19
2023-06-29T06:38:49.925Z,20.22
2023-06-29T06:43:55.007Z,20.23
2023-06-29T06:48:57.857Z,20.43
2023-06-29T06:54:00.821Z,20.49
2023-06-29T06:59:05.256Z,20.50
2023-06-29T07:04:08.410Z,20.62
2023-06-29T07:09:13.023Z,20.84
2023-06-29T07:14:20.944Z,20.90
2023-06-29T07:24:29.858Z,21.15
2023-06-29T07:29:34.781Z,21.22
2023-06-29T07:34:37.789Z,21.34
2023-06-29T07:39:40.714Z,21.67
2023-06-29T07:44:44.901Z,21.79
2023-06-29T07:49:47.738Z,21.63
2023-06-29T07:54:51.131Z,21.57
2023-06-29T07:59:55.399Z,21.58
2023-06-29T08:10:04.233Z,21.76
2023-06-29T08:15:09.492Z,21.81
2023-06-29T08:20:13.753Z,21.85
2023-06-29T08:25:17.153Z,22.00
2023-06-29T08:30:21.680Z,22.02
2023-06-29T08:35:24.686Z,22.08
2023-06-29T08:40:28.112Z,22.13
2023-06-29T08:45:32.615Z,22.19
2023-06-29T08:50:35.589Z,22.24
2023-06-29T08:55:38.551Z,22.29
2023-06-29T09:00:43.013Z,22.35
2023-06-29T09:05:49.149Z,22.42
2023-06-29T09:10:52.333Z,22.51
2023-06-29T09:15:56.682Z,22.57
2023-06-29T09:20:59.890Z,22.66
2023-06-29T09:26:05.714Z,22.72
2023-06-29T09:31:12.501Z,22.81
2023-06-29T09:36:15.511Z,22.81
2023-06-29T09:41:18.401Z,22.85
2023-06-29T09:46:22.986Z,22.92
2023-06-29T09:51:26.131Z,22.92
2023-06-29T09:56:29.471Z,23.00
2023-06-29T10:01:33.921Z,23.12
2023-06-29T10:06:40.858Z,23.22
2023-06-29T10:11:44.648Z,23.27
2023-06-29T10:16:49.840Z,23.32
2023-06-29T10:21:54.086Z,23.45
2023-06-29T10:26:56.976Z,23.41
2023-06-29T10:32:01.398Z,23.56
2023-06-29T10:37:04.357Z,23.55
2023-06-29T10:42:12.806Z,23.61
2023-06-29T10:47:28.772Z,23.60
2023-06-29T10:52:31.963Z,23.69
2023-06-29T10:57:35.223Z,23.76
2023-06-29T11:02:39.657Z,23.83
2023-06-29T11:07:42.859Z,23.80
2023-06-29T11:12:46.056Z,23.80
2023-06-29T11:17:51.234Z,23.89
2023-06-29T11:22:54.170Z,23.97
2023-06-29T11:27:57.123Z,24.00
2023-06-29T11:33:06.771Z,24.01
2023-06-29T11:38:16.269Z,24.08
2023-06-29T11:43:21.169Z,24.15
2023-06-29T11:48:29.681Z,24.18
2023-06-29T11:53:33.101Z,24.25
2023-06-29T11:58:36.439Z,24.30
2023-06-29T12:03:41.129Z,24.39
2023-06-29T12:08:45.330Z,24.53
2023-06-29T12:13:48.374Z,24.55
2023-06-29T12:18:53.507Z,24.60
2023-06-29T12:23:57.093Z,24.49
2023-06-29T12:29:00.021Z,24.54
2023-06-29T12:34:04.385Z,24.56
2023-06-29T12:39:07.339Z,24.59
2023-06-29T12:44:10.262Z,24.63
2023-06-29T12:49:14.513Z,24.68
2023-06-29T12:54:17.420Z,24.73
2023-06-29T12:59:20.313Z,24.79
2023-06-29T13:04:24.785Z,24.81
2023-06-29T13:09:27.800Z,24.78
2023-06-29T13:14:31.802Z,24.77
2023-06-29T13:19:36.039Z,24.82
2023-06-29T13:24:39.037Z,24.94
2023-06-29T13:29:42.240Z,25.04
2023-06-29T13:34:46.710Z,25.00
2023-06-29T13:39:49.657Z,25.04
2023-06-29T13:44:52.488Z,25.16
2023-06-29T13:49:56.640Z,25.23
2023-06-29T13:54:59.613Z,25.23
2023-06-29T14:00:04.157Z,25.25
2023-06-29T14:05:09.385Z,25.27
2023-06-29T14:10:12.474Z,25.32
2023-06-29T14:15:15.383Z,25.34
2023-06-29T14:20:19.916Z,25.40
2023-06-29T14:25:23.203Z,25.46
2023-06-29T14:30:26.186Z,25.50
2023-06-29T14:35:31.850Z,25.53
2023-06-29T14:40:35.766Z,25.58
2023-06-29T14:45:39.256Z,25.64
2023-06-29T14:50:43.600Z,25.59
2023-06-29T14:55:47.030Z,25.61
2023-06-29T15:00:50.397Z,25.66
2023-06-29T15:05:54.789Z,25.75
2023-06-29T15:10:57.941Z,25.85
2023-06-29T15:16:00.982Z,25.95
2023-06-29T15:21:05.465Z,25.84
2023-06-29T15:26:08.553Z,25.73
2023-06-29T15:31:11.550Z,25.64
2023-06-29T15:36:15.781Z,25.59
2023-06-29T15:41:18.752Z,25.58
2023-06-29T15:46:21.803Z,25.64
2023-06-29T15:51:26.377Z,25.71
2023-06-29T15:56:29.572Z,25.77
2023-06-29T16:01:32.553Z,25.83
2023-06-29T16:06:36.966Z,25.73
2023-06-29T16:11:39.825Z,25.68
2023-06-29T16:16:42.803Z,25.61
2023-06-29T16:21:47.171Z,25.79
2023-06-29T16:26:50.768Z,25.83
2023-06-29T16:31:53.999Z,25.81
2023-06-29T16:36:58.430Z,25.81
2023-06-29T16:42:01.631Z,25.74
2023-06-29T16:47:04.778Z,26.11
2023-06-29T16:52:09.723Z,26.17
2023-06-29T16:57:12.703Z,26.08
2023-06-29T17:02:15.872Z,26.03
2023-06-29T17:07:20.276Z,26.02
2023-06-29T17:12:23.261Z,25.96
2023-06-29T17:17:26.254Z,25.87
2023-06-29T17:22:30.634Z,25.85
2023-06-29T17:27:33.464Z,25.82
2023-06-29T17:32:36.812Z,25.82
2023-06-29T17:37:42.371Z,25.88
2023-06-29T17:42:45.253Z,26.04
2023-06-29T17:47:48.057Z,26.12
2023-06-29T17:52:55.633Z,26.08
2023-06-29T17:57:59.900Z,26.05
2023-06-29T18:03:03.071Z,26.05
2023-06-29T18:08:08.969Z,26.05
2023-06-29T18:13:16.508Z,26.08
2023-06-29T18:18:22.388Z,26.12
2023-06-29T18:23:35.572Z,26.10
2023-06-29T18:28:45.295Z,26.07
2023-06-29T18:33:48.169Z,26.04
2023-06-29T18:38:52.444Z,26.02
2023-06-29T18:43:55.554Z,26.01
2023-06-29T18:48:58.996Z,25.99
2023-06-29T18:54:03.148Z,25.97
2023-06-29T18:59:08.880Z,25.95
2023-06-29T19:04:11.745Z,25.92
2023-06-29T19:09:16.114Z,25.90
2023-06-29T19:14:19.051Z,25.86
2023-06-29T19:19:21.832Z,25.83
2023-06-29T19:24:26.306Z,25.82
2023-06-29T19:29:29.331Z,25.81
2023-06-29T19:34:33.093Z,25.80
2023-06-29T19:39:37.473Z,25.81
2023-06-29T19:44:40.338Z,25.75
2023-06-29T19:49:43.882Z,25.78
2023-06-29T19:54:48.879Z,25.75
2023-06-29T19:59:51.716Z,25.74
2023-06-29T20:04:54.668Z,25.76
2023-06-29T20:09:58.912Z,25.75
2023-06-29T20:15:01.768Z,25.76
2023-06-29T20:20:05.001Z,25.76
2023-06-29T20:25:10.404Z,25.76
2023-06-29T20:30:13.581Z,25.77
2023-06-29T20:35:16.586Z,25.76
2023-06-29T20:40:21.076Z,25.78
2023-06-29T20:45:25.624Z,25.77
2023-06-29T20:50:28.440Z,25.79
2023-06-29T20:55:32.893Z,25.78
2023-06-29T21:00:36.113Z,25.79
2023-06-29T21:05:38.967Z,25.78
2023-06-29T21:10:43.372Z,25.79
2023-06-29T21:15:46.653Z,25.81
2023-06-29T21:20:50.294Z,25.83
2023-06-29T21:25:55.237Z,25.80
2023-06-29T21:30:58.781Z,25.81
2023-06-29T21:36:02.129Z,25.83
2023-06-29T21:41:06.524Z,25.84
2023-06-29T21:46:09.370Z,25.84
2023-06-29T21:51:12.254Z,25.84
2023-06-29T21:56:25.854Z,25.83
2023-06-29T22:01:29.561Z,25.84
2023-06-29T22:06:32.471Z,25.84
2023-06-29T22:11:39.666Z,25.80
2023-06-29T22:16:44.592Z,25.74
2023-06-29T22:21:47.513Z,25.78
2023-06-29T22:26:51.708Z,25.70
2023-06-29T22:31:54.696Z,25.61
2023-06-29T22:36:57.599Z,25.57
2023-06-29T22:42:01.973Z,25.56
2023-06-29T22:47:05.226Z,25.53
2023-06-29T22:52:08.704Z,25.55
2023-06-29T22:57:12.913Z,25.61
2023-06-29T23:02:15.903Z,25.63
2023-06-29T23:07:19.692Z,25.58
2023-06-29T23:12:27.208Z,25.55
2023-06-29T23:17:30.685Z,25.49
2023-06-29T23:22:35.308Z,25.44
2023-06-29T23:27:42.573Z,25.40
2023-06-29T23:32:50.928Z,25.37
2023-06-29T23:37:53.928Z,25.35
2023-06-29T23:42:58.284Z,25.34
2023-06-29T23:48:01.224Z,25.32
2023-06-29T23:53:04.162Z,25.35
2023-06-29T23:58:09.068Z,25.33
